Time;durP1;ratioP1;P1;durP2;ratioP2;P2;SDS_P1;SDS_P2;PMS_P1;PMS_P2;Temp;Humidity;BMP_temperature;BMP_pressure;BME280_temperature;BME280_humidity;BME280_pressure;Samples;Min_cycle;Max_cycle;Signal;HPM_P1;HPM_P2
2023/10/20 00:01:47;;;;;;;;;;;;;;;14.66;64.35;99189.31;5074655;28;19919;-76
2023/10/20 00:04:12;;;;;;;;;;;;;;;14.66;64.11;99181.34;5073603;28;19974;-76
2023/10/20 00:06:39;;;;;;;;;;;;;;;14.64;64.71;99178.88;5075401;28;19944;-76
2023/10/20 00:09:05;;;;;;;;;;;;;;;14.62;64.19;99181.75;5075593;28;19916;-75
2023/10/20 00:11:30;;;;;;;;;;;;;;;14.62;63.73;99173.78;5075043;28;19904;-77
2023/10/20 00:13:55;;;;;;;;;;;;;;;14.61;64.30;99174.00;5075056;28;20278;-77
2023/10/20 00:16:27;;;;;;;;;;;;;;;14.60;64.04;99167.88;5074974;28;20003;-77
2023/10/20 00:18:52;;;;;;;;;;;;;;;14.59;64.75;99171.56;5074715;28;19974;-78
2023/10/20 00:21:18;;;;;;;;;;;;;;;14.55;65.19;99164.22;5074660;28;20419;-76
2023/10/20 00:23:43;;;;;;;;;;;;;;;14.51;65.58;99168.34;5074660;28;19916;-78
2023/10/20 00:26:08;;;;;;;;;;;;;;;14.48;64.94;99171.41;5074653;28;20011;-77
2023/10/20 00:28:34;;;;;;;;;;;;;;;14.48;64.65;99164.25;5074581;28;19912;-78
2023/10/20 00:30:59;;;;;;;;;;;;;;;14.48;64.08;99164.25;5074397;28;19927;-77
2023/10/20 00:33:24;;;;;;;;;;;;;;;14.46;64.85;99158.34;5074451;28;19934;-78
2023/10/20 00:35:49;;;;;;;;;;;;;;;14.46;64.48;99145.06;5074401;28;19917;-78
2023/10/20 00:38:15;;;;;;;;;;;;;;;14.44;64.43;99149.78;5073342;28;19913;-77
2023/10/20 00:40:47;;;;;;;;;;;;;;;14.45;64.64;99150.59;5074250;28;20419;-78
2023/10/20 00:43:12;;;;;;;;;;;;;;;14.45;64.17;99153.25;5074455;28;19912;-77
2023/10/20 00:45:39;;;;;;;;;;;;;;;14.44;64.53;99154.28;5074131;28;20018;-77
2023/10/20 00:48:06;;;;;;;;;;;;;;;14.43;64.17;99155.31;5074039;28;19985;-78
2023/10/20 00:50:31;;;;;;;;;;;;;;;14.36;64.61;99167.75;5074230;28;19913;-76
2023/10/20 00:52:57;;;;;;;;;;;;;;;14.29;64.41;99151.88;5074156;28;19916;-77
2023/10/20 00:55:23;;;;;;;;;;;;;;;14.30;63.77;99153.50;5073860;28;19966;-77
2023/10/20 00:57:49;;;;;;;;;;;;;;;14.24;64.09;99157.81;5073890;28;20007;-76
2023/10/20 01:00:15;;;;;;;;;;;;;;;14.24;63.80;99151.69;5073900;28;19999;-77
2023/10/20 01:02:41;;;;;;;;;;;;;;;14.16;63.60;99160.69;5074053;28;19944;-77
2023/10/20 01:05:09;;;;;;;;;;;;;;;14.11;63.74;99165.78;5073824;28;19920;-77
2023/10/20 01:07:35;;;;;;;;;;;;;;;14.09;63.65;99169.69;5072741;28;19913;-77
2023/10/20 01:10:05;;;;;;;;;;;;;;;14.06;63.88;99164.78;5073678;28;19916;-78
2023/10/20 01:12:33;;;;;;;;;;;;;;;14.02;63.44;99153.78;5073142;28;19919;-77
2023/10/20 01:14:59;;;;;;;;;;;;;;;13.99;63.84;99155.00;5073627;28;19952;-77
2023/10/20 01:17:28;;;;;;;;;;;;;;;14.00;63.59;99155.84;5072340;28;19920;-78
2023/10/20 01:19:53;;;;;;;;;;;;;;;13.95;63.98;99148.50;5073449;28;19920;-77
2023/10/20 01:22:18;;;;;;;;;;;;;;;13.91;64.59;99149.13;5072113;28;20432;-77
2023/10/20 01:24:44;;;;;;;;;;;;;;;13.82;65.18;99140.56;5073292;28;19913;-78
2023/10/20 01:27:09;;;;;;;;;;;;;;;13.78;65.14;99152.63;5073181;28;19918;-77
2023/10/20 01:29:34;;;;;;;;;;;;;;;13.77;64.92;99150.19;5071963;28;19966;-77
2023/10/20 01:31:59;;;;;;;;;;;;;;;13.79;64.42;99143.66;5073306;28;19913;-77
2023/10/20 01:34:25;;;;;;;;;;;;;;;13.82;64.07;99161.00;5073310;28;19913;-75
2023/10/20 01:36:50;;;;;;;;;;;;;;;13.78;64.53;99160.59;5073166;28;20424;-77
2023/10/20 01:39:16;;;;;;;;;;;;;;;13.77;64.31;99151.00;5071713;28;19917;-77
2023/10/20 01:41:41;;;;;;;;;;;;;;;13.74;64.44;99142.63;5072948;28;19944;-77
2023/10/20 01:44:08;;;;;;;;;;;;;;;13.74;64.49;99146.13;5072963;28;20463;-76
2023/10/20 01:46:34;;;;;;;;;;;;;;;13.76;64.09;99149.38;5073022;28;19912;-75
2023/10/20 01:48:59;;;;;;;;;;;;;;;13.76;64.94;99137.94;5071555;28;19936;-78
2023/10/20 01:51:24;;;;;;;;;;;;;;;13.74;64.42;99140.81;5072992;28;19961;-78
2023/10/20 01:53:50;;;;;;;;;;;;;;;13.73;64.59;99141.00;5071509;28;20377;-77
2023/10/20 01:56:15;;;;;;;;;;;;;;;13.70;64.48;99142.25;5072594;28;19912;-77
2023/10/20 01:58:40;;;;;;;;;;;;;;;13.66;64.67;99149.00;5072421;28;19916;-75
2023/10/20 02:01:08;;;;;;;;;;;;;;;13.57;64.38;99135.13;5072537;28;20461;-77
2023/10/20 02:03:33;;;;;;;;;;;;;;;13.51;64.40;99138.59;5072512;28;19912;-77
2023/10/20 02:05:58;;;;;;;;;;;;;;;13.46;64.63;99146.38;5072343;28;19927;-77
2023/10/20 02:08:23;;;;;;;;;;;;;;;13.46;64.23;99151.69;5072353;28;20392;-77
2023/10/20 02:10:49;;;;;;;;;;;;;;;13.44;64.33;99142.28;5072283;28;19923;-77
2023/10/20 02:13:15;;;;;;;;;;;;;;;13.40;64.44;99151.69;5072216;28;19913;-78
2023/10/20 02:15:46;;;;;;;;;;;;;;;13.38;64.22;99149.25;5072274;28;20386;-77
2023/10/20 02:18:12;;;;;;;;;;;;;;;13.35;63.84;99154.91;5072396;28;19934;-77
2023/10/20 02:20:37;;;;;;;;;;;;;;;13.27;64.39;99153.28;5070818;28;20377;-77
2023/10/20 02:23:03;;;;;;;;;;;;;;;13.26;64.25;99158.81;5070235;28;19935;-77
2023/10/20 02:25:28;;;;;;;;;;;;;;;13.22;64.31;99145.13;5071271;28;20398;-76
2023/10/20 02:27:53;;;;;;;;;;;;;;;13.18;64.28;99151.06;5072437;28;19912;-77
2023/10/20 02:30:19;;;;;;;;;;;;;;;13.10;64.87;99152.03;5072343;28;19912;-76
2023/10/20 02:32:44;;;;;;;;;;;;;;;13.05;64.55;99151.84;5071417;28;19912;-77
2023/10/20 02:35:09;;;;;;;;;;;;;;;13.08;64.06;99147.97;5072306;28;20003;-77
2023/10/20 02:37:34;;;;;;;;;;;;;;;13.07;64.08;99149.81;5072264;28;20388;-77
2023/10/20 02:40:04;;;;;;;;;;;;;;;13.00;64.24;99146.34;5071985;28;19917;-76
2023/10/20 02:42:30;;;;;;;;;;;;;;;12.99;64.11;99156.13;5072109;28;19919;-75
2023/10/20 02:44:56;;;;;;;;;;;;;;;13.02;63.88;99158.38;5072041;28;19916;-76
2023/10/20 02:47:21;;;;;;;;;;;;;;;13.04;64.12;99155.50;5071968;28;19987;-75
2023/10/20 02:49:46;;;;;;;;;;;;;;;13.01;63.78;99146.13;5070627;28;20317;-76
2023/10/20 02:52:13;;;;;;;;;;;;;;;13.01;63.67;99153.25;5071612;28;19909;-76
2023/10/20 02:54:38;;;;;;;;;;;;;;;12.97;63.92;99133.50;5071629;28;19912;-76
2023/10/20 02:57:05;;;;;;;;;;;;;;;12.96;64.31;99130.03;5071737;28;19909;-76
2023/10/20 02:59:30;;;;;;;;;;;;;;;12.99;64.04;99152.66;5071619;28;19916;-76
2023/10/20 03:01:55;;;;;;;;;;;;;;;12.97;64.16;99131.66;5071890;28;19919;-77
2023/10/20 03:04:21;;;;;;;;;;;;;;;12.93;64.06;99134.91;5070240;28;19969;-76
2023/10/20 03:06:46;;;;;;;;;;;;;;;12.94;63.85;99131.25;5071725;28;19912;-77
2023/10/20 03:09:13;;;;;;;;;;;;;;;13.00;63.69;99133.91;5071488;28;19935;-77
2023/10/20 03:11:39;;;;;;;;;;;;;;;13.01;64.00;99132.06;5071636;28;19966;-77
2023/10/20 03:14:04;;;;;;;;;;;;;;;12.96;63.69;99132.69;5071705;28;20017;-77
2023/10/20 03:16:29;;;;;;;;;;;;;;;12.95;63.21;99123.09;5071373;28;19912;-76
2023/10/20 03:18:54;;;;;;;;;;;;;;;12.94;63.45;99131.25;5071339;28;19916;-78
2023/10/20 03:21:21;;;;;;;;;;;;;;;12.92;63.51;99128.81;5071480;28;20344;-76
2023/10/20 03:23:46;;;;;;;;;;;;;;;12.88;63.17;99135.53;5069976;28;19912;-76
2023/10/20 03:26:12;;;;;;;;;;;;;;;12.81;63.55;99115.34;5071323;28;19918;-76
2023/10/20 03:28:39;;;;;;;;;;;;;;;12.76;63.13;99110.66;5070141;28;19917;-77
2023/10/20 03:31:04;;;;;;;;;;;;;;;12.70;63.30;99111.47;5071512;28;19923;-76
2023/10/20 03:33:30;;;;;;;;;;;;;;;12.62;63.90;99106.31;5070137;28;19999;-76
2023/10/20 03:36:05;;;;;;;;;;;;;;;12.58;63.60;99097.97;5075375;28;19912;-77
2023/10/20 03:38:30;;;;;;;;;;;;;;;12.60;63.68;99109.19;5075385;28;20007;-76
2023/10/20 03:41:11;;;;;;;;;;;;;;;12.60;63.46;99098.59;5074092;28;20453;-77
2023/10/20 03:43:37;;;;;;;;;;;;;;;12.60;63.03;99105.72;5073913;28;20011;-76
2023/10/20 03:46:05;;;;;;;;;;;;;;;12.55;63.43;99108.97;5075454;28;20053;-76
2023/10/20 03:48:33;;;;;;;;;;;;;;;12.51;63.65;99102.44;5075279;28;19919;-76
2023/10/20 03:50:58;;;;;;;;;;;;;;;12.46;63.41;99104.88;5073946;28;19927;-76
2023/10/20 03:53:39;;;;;;;;;;;;;;;12.48;63.41;99113.44;5073984;28;19909;-76
2023/10/20 03:56:07;;;;;;;;;;;;;;;12.42;63.58;99111.59;5074985;28;20409;-76
2023/10/20 03:58:33;;;;;;;;;;;;;;;12.33;63.70;99110.97;5073679;28;20297;-76
2023/10/20 04:01:02;;;;;;;;;;;;;;;12.32;63.34;99111.97;5074881;28;19919;-77
2023/10/20 04:03:30;;;;;;;;;;;;;;;12.29;63.01;99114.19;5074930;28;19919;-76
2023/10/20 04:05:55;;;;;;;;;;;;;;;12.27;63.88;99106.47;5073453;28;19952;-76
2023/10/20 04:08:22;;;;;;;;;;;;;;;12.28;63.82;99110.75;5074974;28;19913;-77
2023/10/20 04:10:47;;;;;;;;;;;;;;;12.32;63.69;99108.50;5074844;28;19921;-76
2023/10/20 04:13:12;;;;;;;;;;;;;;;12.39;63.47;99106.69;5074761;28;19912;-76
2023/10/20 04:15:39;;;;;;;;;;;;;;;12.45;63.09;99105.06;5074868;28;19920;-76
2023/10/20 04:18:04;;;;;;;;;;;;;;;12.44;63.28;99101.63;5073542;28;19913;-76
2023/10/20 04:20:30;;;;;;;;;;;;;;;12.45;63.41;99097.94;5074798;28;19916;-77
2023/10/20 04:22:58;;;;;;;;;;;;;;;12.50;62.57;99105.28;5074697;28;19913;-76
2023/10/20 04:25:29;;;;;;;;;;;;;;;12.50;63.14;99100.00;5074649;28;19912;-77
2023/10/20 04:27:58;;;;;;;;;;;;;;;12.55;62.84;99106.31;5074655;28;19948;-77
2023/10/20 04:54:35;;;;;;;;;;;;;;;12.29;62.75;99117.66;5074434;28;20026;-76
2023/10/20 04:59:44;;;;;;;;;;;;;;;12.28;63.09;99123.16;5073788;28;19974;-77
2023/10/20 05:02:33;;;;;;;;;;;;;;;12.32;63.24;99129.69;5072688;28;20347;-76
2023/10/20 05:05:01;;;;;;;;;;;;;;;12.33;62.97;99123.38;5089420;28;19970;-77
2023/10/20 05:07:28;;;;;;;;;;;;;;;12.37;62.67;99128.06;5073730;28;19912;-78
2023/10/20 05:09:54;;;;;;;;;;;;;;;12.38;62.05;99127.06;5073768;28;19950;-77
2023/10/20 05:12:20;;;;;;;;;;;;;;;12.34;62.93;99135.59;5073374;28;19919;-78
2023/10/20 05:14:46;;;;;;;;;;;;;;;12.31;62.92;99144.75;5073941;28;19991;-78
2023/10/20 05:17:14;;;;;;;;;;;;;;;12.31;62.33;99143.94;5073482;28;19919;-77
2023/10/20 05:19:40;;;;;;;;;;;;;;;12.31;62.38;99144.75;5073308;28;19999;-77
2023/10/20 05:22:05;;;;;;;;;;;;;;;12.28;62.63;99139.03;5073548;28;20401;-77
2023/10/20 05:24:31;;;;;;;;;;;;;;;12.21;62.94;99136.38;5073374;28;19913;-76
2023/10/20 05:26:56;;;;;;;;;;;;;;;12.16;62.57;99137.97;5073631;28;19948;-78
2023/10/20 05:29:21;;;;;;;;;;;;;;;12.21;63.24;99146.16;5066208;28;20321;-76
2023/10/20 05:31:47;;;;;;;;;;;;;;;12.28;62.65;99150.44;5053328;28;19920;-77
2023/10/20 05:34:13;;;;;;;;;;;;;;;12.31;62.86;99144.75;5053098;28;19935;-76
2023/10/20 05:36:38;;;;;;;;;;;;;;;12.36;62.50;99144.16;5053354;28;20432;-75
2023/10/20 05:39:04;;;;;;;;;;;;;;;12.39;62.47;99134.00;5053092;28;19917;-76
2023/10/20 05:41:30;;;;;;;;;;;;;;;12.42;62.72;99140.72;5052950;28;19935;-78
2023/10/20 05:43:55;;;;;;;;;;;;;;;12.43;62.51;99134.41;5053252;28;20373;-77
2023/10/20 05:46:21;;;;;;;;;;;;;;;12.45;62.14;99129.72;5070017;28;20395;-77
2023/10/20 05:48:47;;;;;;;;;;;;;;;12.44;62.57;99135.22;5072545;28;19919;-76
2023/10/20 05:51:12;;;;;;;;;;;;;;;12.47;62.44;99135.63;5072810;28;19912;-76
2023/10/20 05:53:37;;;;;;;;;;;;;;;12.47;62.23;99134.81;5072179;28;20312;-79
2023/10/20 05:56:03;;;;;;;;;;;;;;;12.44;62.57;99130.75;5055441;28;19967;-76
2023/10/20 05:58:30;;;;;;;;;;;;;;;12.53;62.50;99126.88;5071430;28;19964;-77
2023/10/20 06:00:55;;;;;;;;;;;;;;;12.59;62.65;99128.72;5065239;28;19970;-77
2023/10/20 06:03:20;;;;;;;;;;;;;;;12.67;62.48;99131.22;5051161;28;19913;-76
2023/10/20 06:05:46;;;;;;;;;;;;;;;12.70;62.22;99133.47;5052102;28;19977;-78
2023/10/20 06:08:11;;;;;;;;;;;;;;;12.76;62.26;99126.53;5052391;28;20007;-77
2023/10/20 06:10:36;;;;;;;;;;;;;;;12.82;62.36;99141.63;5051038;28;20408;-77
2023/10/20 06:13:03;;;;;;;;;;;;;;;12.85;62.23;99143.06;5052450;28;19920;-74
2023/10/20 06:15:28;;;;;;;;;;;;;;;12.89;62.22;99144.28;5052328;28;19912;-74
2023/10/20 06:17:54;;;;;;;;;;;;;;;12.97;62.17;99149.38;5050766;28;20290;-77
2023/10/20 06:20:19;;;;;;;;;;;;;;;13.01;62.07;99142.66;5053359;28;19921;-77
2023/10/20 06:22:44;;;;;;;;;;;;;;;12.97;61.86;99136.97;5050892;28;19913;-77
2023/10/20 06:25:12;;;;;;;;;;;;;;;12.99;61.88;99137.56;5053618;28;19995;-74
2023/10/20 06:27:40;;;;;;;;;;;;;;;13.08;62.07;99142.66;5072387;28;19919;-77
2023/10/20 06:30:06;;;;;;;;;;;;;;;13.14;62.17;99132.06;5072255;28;19913;-77
2023/10/20 06:32:40;;;;;;;;;;;;;;;13.20;61.76;99144.53;5072100;28;19965;-77
2023/10/20 06:35:05;;;;;;;;;;;;;;;13.30;62.05;99146.75;5070346;28;19912;-75
2023/10/20 06:39:56;;;;;;;;;;;;;;;13.49;61.95;99134.53;5071872;28;19943;-75
2023/10/20 06:42:21;;;;;;;;;;;;;;;13.53;62.11;99138.41;5071862;28;19916;-74
2023/10/20 06:44:48;;;;;;;;;;;;;;;13.61;62.07;99135.53;5070192;28;20350;-78
2023/10/20 06:47:13;;;;;;;;;;;;;;;13.68;62.79;99133.69;5070107;28;20282;-77
2023/10/20 06:49:38;;;;;;;;;;;;;;;13.73;62.49;99131.22;5055001;28;19916;-77
2023/10/20 06:52:04;;;;;;;;;;;;;;;13.81;62.23;99122.22;5066735;28;19948;-77
2023/10/20 06:54:29;;;;;;;;;;;;;;;13.90;62.03;99123.59;5069243;28;20435;-75
2023/10/20 06:56:55;;;;;;;;;;;;;;;14.01;61.97;99128.25;5060633;28;20386;-76
2023/10/20 06:59:20;;;;;;;;;;;;;;;14.10;62.27;99124.34;5071060;28;20377;-75
2023/10/20 07:01:45;;;;;;;;;;;;;;;14.18;61.98;99121.47;5055713;28;20366;-77
2023/10/20 07:04:10;;;;;;;;;;;;;;;14.25;62.22;99130.22;5060065;28;19921;-77
2023/10/20 07:06:42;;;;;;;;;;;;;;;14.35;61.74;99123.66;5051707;28;20346;-77
2023/10/20 07:09:11;;;;;;;;;;;;;;;14.45;61.57;99122.19;5069925;28;19934;-77
2023/10/20 07:11:40;;;;;;;;;;;;;;;14.53;61.35;99119.28;5069701;28;19962;-77
2023/10/20 07:14:06;;;;;;;;;;;;;;;14.63;61.41;99127.59;5070115;28;19999;-76
2023/10/20 07:16:32;;;;;;;;;;;;;;;14.74;60.51;99119.97;5063231;28;20004;-77
2023/10/20 07:18:57;;;;;;;;;;;;;;;14.83;61.34;99129.28;5058606;28;19931;-77
2023/10/20 07:21:22;;;;;;;;;;;;;;;14.89;61.30;99123.16;5050637;28;19920;-77
2023/10/20 07:23:47;;;;;;;;;;;;;;;14.95;60.81;99119.63;5050292;28;20007;-77
2023/10/20 07:26:17;;;;;;;;;;;;;;;15.04;60.60;99123.66;5050316;28;19913;-77
2023/10/20 07:28:43;;;;;;;;;;;;;;;15.13;60.91;99124.19;5068247;28;19955;-75
2023/10/20 07:31:12;;;;;;;;;;;;;;;15.18;61.04;99145.63;5069865;28;19959;-75
2023/10/20 07:33:37;;;;;;;;;;;;;;;15.23;61.20;99135.16;5059952;28;19965;-77
2023/10/20 07:36:04;;;;;;;;;;;;;;;15.30;61.00;99132.44;5071411;28;19916;-75
2023/10/20 07:38:29;;;;;;;;;;;;;;;15.36;60.82;99135.03;5070040;28;19970;-75
2023/10/20 07:40:54;;;;;;;;;;;;;;;15.42;61.10;99133.34;5071508;28;19916;-76
2023/10/20 07:43:21;;;;;;;;;;;;;;;15.49;61.11;99126.09;5071675;28;20437;-76
2023/10/20 07:45:47;;;;;;;;;;;;;;;15.57;60.78;99128.47;5071525;28;19982;-75
2023/10/20 07:48:12;;;;;;;;;;;;;;;15.61;61.92;99132.38;5065803;28;19995;-74
2023/10/20 07:50:37;;;;;;;;;;;;;;;15.62;61.32;99122.56;5060907;28;19917;-75
2023/10/20 07:53:03;;;;;;;;;;;;;;;15.71;61.30;99126.56;5065533;28;20362;-78
2023/10/20 07:55:29;;;;;;;;;;;;;;;15.81;60.90;99117.00;5071610;28;19913;-75
2023/10/20 07:57:55;;;;;;;;;;;;;;;15.91;60.76;99121.00;5073173;28;19912;-77
2023/10/20 08:00:20;;;;;;;;;;;;;;;16.02;60.05;99120.25;5072734;28;19920;-76
2023/10/20 08:02:48;;;;;;;;;;;;;;;16.12;59.88;99112.53;5055155;28;20390;-75
2023/10/20 08:05:13;;;;;;;;;;;;;;;16.24;60.08;99109.94;5052046;28;19920;-77
2023/10/20 08:07:42;;;;;;;;;;;;;;;16.33;60.16;99101.41;5062459;28;20401;-77
2023/10/20 08:10:07;;;;;;;;;;;;;;;16.42;60.59;99104.59;5055005;28;19927;-76
2023/10/20 08:12:33;;;;;;;;;;;;;;;16.50;60.11;99109.59;5056284;28;19916;-74
2023/10/20 08:14:58;;;;;;;;;;;;;;;16.58;60.23;99113.81;5050934;28;19912;-76
2023/10/20 08:17:24;;;;;;;;;;;;;;;16.64;59.27;99116.38;5050888;28;20446;-75
2023/10/20 08:19:49;;;;;;;;;;;;;;;16.71;59.66;99116.31;5049826;28;19927;-75
2023/10/20 08:22:14;;;;;;;;;;;;;;;16.77;60.27;99116.19;5068594;28;19928;-76
2023/10/20 08:24:40;;;;;;;;;;;;;;;16.83;59.78;99111.81;5070613;28;20313;-76
2023/10/20 08:27:05;;;;;;;;;;;;;;;16.90;59.35;99120.50;5073515;28;19912;-76
2023/10/20 08:29:31;;;;;;;;;;;;;;;16.95;59.47;99123.31;5074336;28;19916;-75
2023/10/20 08:31:57;;;;;;;;;;;;;;;17.02;59.33;99107.19;5068734;28;19912;-75
2023/10/20 08:34:23;;;;;;;;;;;;;;;17.05;59.49;99107.53;5056721;28;19924;-75
2023/10/20 08:36:48;;;;;;;;;;;;;;;17.12;59.25;99112.81;5068733;28;20321;-75
2023/10/20 08:39:14;;;;;;;;;;;;;;;17.18;60.03;99106.53;5074491;28;19924;-75
2023/10/20 08:41:40;;;;;;;;;;;;;;;17.22;59.24;99096.22;5074500;28;19913;-78
2023/10/20 08:44:05;;;;;;;;;;;;;;;17.28;58.89;99095.28;5074577;28;19919;-75
2023/10/20 08:46:31;;;;;;;;;;;;;;;17.35;58.69;99095.97;5074514;28;19912;-75
2023/10/20 08:48:57;;;;;;;;;;;;;;;17.42;59.59;99102.00;5072551;28;19922;-76
2023/10/20 08:51:23;;;;;;;;;;;;;;;17.47;58.37;99094.13;5064640;28;20382;-77
2023/10/20 08:53:48;;;;;;;;;;;;;;;17.55;58.47;99095.63;5071554;28;19923;-76
2023/10/20 08:56:14;;;;;;;;;;;;;;;17.63;58.67;99092.59;5073276;28;20011;-75
2023/10/20 08:58:39;;;;;;;;;;;;;;;17.60;58.28;99093.88;5072934;28;19983;-75
2023/10/20 09:01:08;;;;;;;;;;;;;;;17.67;58.67;99093.78;5072371;28;20002;-75
2023/10/20 09:03:39;;;;;;;;;;;;;;;17.75;58.16;99096.91;5071944;28;19917;-76
2023/10/20 09:06:06;;;;;;;;;;;;;;;17.82;58.07;99093.28;5073375;28;19928;-76
2023/10/20 09:08:31;;;;;;;;;;;;;;;17.89;58.46;99099.34;5073310;28;19939;-77
2023/10/20 09:10:57;;;;;;;;;;;;;;;17.99;58.06;99099.53;5074504;28;19916;-77
2023/10/20 09:13:28;;;;;;;;;;;;;;;18.10;57.92;99093.34;5069120;28;19916;-75
2023/10/20 09:15:53;;;;;;;;;;;;;;;18.15;57.59;99074.75;5083832;28;20377;-76
2023/10/20 09:18:19;;;;;;;;;;;;;;;18.22;57.55;99078.09;5083987;28;19952;-76
2023/10/20 09:20:44;;;;;;;;;;;;;;;18.30;57.03;99083.03;5082141;28;19923;-77
2023/10/20 09:23:12;;;;;;;;;;;;;;;18.38;57.13;99069.28;5074314;28;19916;-76
2023/10/20 09:25:38;;;;;;;;;;;;;;;18.49;56.49;99075.63;5073629;28;19916;-77
2023/10/20 09:28:03;;;;;;;;;;;;;;;18.56;56.76;99067.44;5073574;28;20300;-77
2023/10/20 09:30:28;;;;;;;;;;;;;;;18.67;56.66;99055.94;5072245;28;19942;-75
2023/10/20 09:32:54;;;;;;;;;;;;;;;18.75;56.39;99057.41;5069392;28;19916;-76
2023/10/20 09:35:20;;;;;;;;;;;;;;;18.85;56.00;99055.69;5061431;28;19916;-76
2023/10/20 09:37:50;;;;;;;;;;;;;;;18.94;55.81;99048.06;5061049;28;20460;-76
2023/10/20 09:40:15;;;;;;;;;;;;;;;19.07;55.69;99057.63;5072984;28;19970;-77
2023/10/20 09:42:49;;;;;;;;;;;;;;;19.18;55.51;99051.38;5073539;28;19916;-77
2023/10/20 09:45:16;;;;;;;;;;;;;;;19.26;54.89;99049.09;5073202;28;20709;-77
2023/10/20 09:47:43;;;;;;;;;;;;;;;19.27;55.41;99047.22;5075882;28;19916;-73
2023/10/20 09:50:11;;;;;;;;;;;;;;;19.31;54.92;99041.13;5061480;28;20325;-77
2023/10/20 09:52:37;;;;;;;;;;;;;;;19.44;55.00;99050.69;5053149;28;19999;-76
2023/10/20 09:55:03;;;;;;;;;;;;;;;19.56;55.25;99047.94;5061564;28;20019;-74
2023/10/20 09:57:29;;;;;;;;;;;;;;;19.68;54.79;99046.75;5068833;28;20375;-77
2023/10/20 09:59:54;;;;;;;;;;;;;;;19.76;54.31;99039.34;5071636;28;19921;-77
2023/10/20 10:02:29;;;;;;;;;;;;;;;19.89;54.21;99038.94;5067260;28;19923;-76
2023/10/20 10:04:56;;;;;;;;;;;;;;;19.97;54.25;99041.19;5053195;28;19970;-76
2023/10/20 10:07:29;;;;;;;;;;;;;;;20.05;54.21;99045.28;5061931;28;19924;-75
2023/10/20 10:09:55;;;;;;;;;;;;;;;20.15;54.16;99035.50;5062788;28;19970;-75
2023/10/20 10:12:23;;;;;;;;;;;;;;;20.29;53.69;99034.03;5070681;28;20033;-75
2023/10/20 10:14:59;;;;;;;;;;;;;;;20.44;53.49;99038.78;5071316;28;19924;-76
2023/10/20 10:17:26;;;;;;;;;;;;;;;20.55;52.97;99034.31;5068504;28;19994;-77
2023/10/20 10:19:52;;;;;;;;;;;;;;;20.64;53.08;99022.03;5065899;28;19936;-77
2023/10/20 10:22:29;;;;;;;;;;;;;;;20.72;52.78;99026.13;5064808;28;19928;-76
2023/10/20 10:24:55;;;;;;;;;;;;;;;20.82;52.85;99024.34;5069221;28;19943;-76
2023/10/20 10:27:24;;;;;;;;;;;;;;;20.92;52.56;99012.88;5070724;28;19916;-76
2023/10/20 10:29:50;;;;;;;;;;;;;;;20.89;52.44;99018.78;5066176;28;19925;-77
2023/10/20 10:32:28;;;;;;;;;;;;;;;20.95;52.35;99020.41;5068489;28;19956;-76
2023/10/20 10:34:54;;;;;;;;;;;;;;;21.03;52.13;99011.88;5056497;28;20599;-76
2023/10/20 10:37:27;;;;;;;;;;;;;;;21.06;52.06;99005.19;5070407;28;19970;-77
2023/10/20 10:39:52;;;;;;;;;;;;;;;21.12;52.33;99010.31;5072968;28;20347;-77
2023/10/20 10:42:19;;;;;;;;;;;;;;;21.22;51.68;99007.72;5072519;28;19913;-77
2023/10/20 10:44:44;;;;;;;;;;;;;;;21.31;51.97;99000.00;5071497;28;19972;-77
2023/10/20 10:47:17;;;;;;;;;;;;;;;21.42;51.74;99001.66;5068416;28;19916;-74
2023/10/20 10:49:47;;;;;;;;;;;;;;;21.51;51.20;98994.72;5069984;28;19924;-76
2023/10/20 10:52:12;;;;;;;;;;;;;;;21.58;51.29;98988.31;5069555;28;20312;-77
2023/10/20 10:54:37;;;;;;;;;;;;;;;21.64;51.30;98992.63;5068825;28;19999;-76
2023/10/20 10:57:05;;;;;;;;;;;;;;;21.74;51.06;98985.41;5071951;28;19916;-77
2023/10/20 10:59:31;;;;;;;;;;;;;;;21.84;51.39;98987.31;5071706;28;19916;-77
2023/10/20 11:01:57;;;;;;;;;;;;;;;21.88;50.77;98981.16;5071757;28;19962;-75
2023/10/20 11:04:25;;;;;;;;;;;;;;;21.86;50.13;98969.84;5070972;28;19969;-76
2023/10/20 11:06:50;;;;;;;;;;;;;;;21.92;50.86;98972.56;5071700;28;19916;-75
2023/10/20 11:09:19;;;;;;;;;;;;;;;22.00;50.69;98972.84;5071501;28;20050;-75
2023/10/20 11:11:47;;;;;;;;;;;;;;;22.05;50.75;98978.25;5069066;28;20388;-77
2023/10/20 11:14:16;;;;;;;;;;;;;;;22.08;50.73;98969.66;5070409;28;20917;-75
2023/10/20 11:16:42;;;;;;;;;;;;;;;22.07;50.40;98964.53;5067906;28;20424;-75
2023/10/20 11:19:07;;;;;;;;;;;;;;;22.05;50.23;98964.81;5068355;28;19924;-76
2023/10/20 11:21:42;;;;;;;;;;;;;;;22.00;50.17;98962.09;5071467;28;19912;-77
2023/10/20 11:24:08;;;;;;;;;;;;;;;21.96;50.74;98958.31;5056027;28;20091;-76
2023/10/20 11:26:35;;;;;;;;;;;;;;;21.96;50.97;98955.63;5070807;28;19934;-77
2023/10/20 11:29:01;;;;;;;;;;;;;;;21.93;50.91;98944.59;5070728;28;20007;-76
2023/10/20 11:31:26;;;;;;;;;;;;;;;21.91;50.95;98941.38;5071017;28;20478;-76
2023/10/20 11:33:51;;;;;;;;;;;;;;;21.88;50.71;98942.72;5053600;28;19951;-76
2023/10/20 11:36:17;;;;;;;;;;;;;;;21.86;50.48;98936.78;5051449;28;19917;-77
2023/10/20 11:38:42;;;;;;;;;;;;;;;21.82;51.26;98933.84;5049741;28;20012;-76
2023/10/20 11:41:07;;;;;;;;;;;;;;;21.79;51.43;98933.56;5049938;28;20317;-75
2023/10/20 11:43:32;;;;;;;;;;;;;;;21.76;50.84;98936.78;5050481;28;19953;-76
2023/10/20 11:45:58;;;;;;;;;;;;;;;21.74;51.13;98920.13;5050993;28;20322;-77
2023/10/20 11:48:23;;;;;;;;;;;;;;;21.72;51.67;98927.63;5050924;28;20405;-75
2023/10/20 11:50:48;;;;;;;;;;;;;;;21.71;51.31;98934.88;5051036;28;19916;-75
2023/10/20 11:53:14;;;;;;;;;;;;;;;21.70;51.40;98933.28;5067051;28;19974;-77
2023/10/20 11:55:39;;;;;;;;;;;;;;;21.72;51.35;98935.69;5070966;28;19916;-75
2023/10/20 11:58:05;;;;;;;;;;;;;;;21.75;51.60;98932.47;5061218;28;20420;-76
2023/10/20 12:00:30;;;;;;;;;;;;;;;21.75;51.90;98922.53;5075185;28;19917;-77
2023/10/20 12:02:55;;;;;;;;;;;;;;;21.77;51.94;98919.59;5071482;28;19952;-76
2023/10/20 12:05:20;;;;;;;;;;;;;;;21.85;51.75;98921.75;5054868;28;19925;-76
2023/10/20 12:07:46;;;;;;;;;;;;;;;21.97;51.52;98924.97;5070352;28;19936;-77
2023/10/20 12:10:12;;;;;;;;;;;;;;;22.08;51.35;98910.50;5074807;28;19905;-76
2023/10/20 12:12:38;;;;;;;;;;;;;;;22.16;51.35;98915.34;5074753;28;19939;-76
2023/10/20 12:15:05;;;;;;;;;;;;;;;22.27;51.11;98923.41;5071632;28;20007;-77
2023/10/20 12:17:30;;;;;;;;;;;;;;;22.34;50.91;98919.41;5074680;28;19912;-74
2023/10/20 12:19:55;;;;;;;;;;;;;;;22.40;50.95;98923.72;5073185;28;19935;-77
2023/10/20 12:22:21;;;;;;;;;;;;;;;22.47;50.69;98916.16;5074781;28;20383;-77
2023/10/20 12:24:46;;;;;;;;;;;;;;;22.49;50.68;98924.78;5070620;28;19963;-76
2023/10/20 12:27:11;;;;;;;;;;;;;;;22.51;50.79;98921.81;5055392;28;19966;-74
2023/10/20 12:29:37;;;;;;;;;;;;;;;22.57;50.65;98920.72;5068107;28;19916;-76
2023/10/20 12:32:03;;;;;;;;;;;;;;;22.60;50.61;98925.56;5080456;28;19917;-76
2023/10/20 12:34:28;;;;;;;;;;;;;;;22.65;50.53;98917.50;5074668;28;19960;-76
2023/10/20 12:36:54;;;;;;;;;;;;;;;22.67;50.39;98919.91;5064665;28;20321;-77
2023/10/20 12:39:20;;;;;;;;;;;;;;;22.68;50.38;98919.63;5054321;28;20402;-77
2023/10/20 12:41:46;;;;;;;;;;;;;;;22.71;50.32;98919.09;5057969;28;19920;-76
2023/10/20 12:44:11;;;;;;;;;;;;;;;22.73;50.41;98924.19;5068970;28;20303;-77
2023/10/20 12:46:37;;;;;;;;;;;;;;;22.76;50.19;98923.66;5054162;28;19917;-77
2023/10/20 12:49:02;;;;;;;;;;;;;;;22.80;50.11;98919.38;5072193;28;20393;-75
2023/10/20 12:51:27;;;;;;;;;;;;;;;22.80;50.22;98920.19;5073929;28;19966;-76
2023/10/20 12:53:52;;;;;;;;;;;;;;;22.82;50.12;98931.47;5074104;28;19965;-76
2023/10/20 12:56:18;;;;;;;;;;;;;;;22.85;49.90;98921.25;5073862;28;19912;-75
2023/10/20 12:58:43;;;;;;;;;;;;;;;22.87;50.11;98924.47;5073668;28;19915;-75
2023/10/20 13:01:08;;;;;;;;;;;;;;;22.89;49.94;98919.63;5073814;28;19919;-74
2023/10/20 13:03:34;;;;;;;;;;;;;;;22.90;49.90;98913.97;5073644;28;19912;-74
2023/10/20 13:05:59;;;;;;;;;;;;;;;22.90;49.95;98913.16;5073577;28;19920;-76
2023/10/20 13:08:24;;;;;;;;;;;;;;;22.90;50.02;98911.25;5073044;28;19920;-76
2023/10/20 13:10:50;;;;;;;;;;;;;;;22.93;50.00;98918.00;5074128;28;19913;-76
2023/10/20 13:13:16;;;;;;;;;;;;;;;22.96;49.85;98914.75;5073792;28;19952;-76